sensor_id;sensor_type;location;lat;lon;timestamp;temperature;humidity
46720;DHT22;32452;51.382;-0.002;2023-03-01T00:01:43;4.60;97.00
46720;DHT22;32452;51.382;-0.002;2023-03-01T00:04:29;4.60;97.00
46720;DHT22;32452;51.382;-0.002;2023-03-01T00:07:15;4.60;97.00
46720;DHT22;32452;51.382;-0.002;2023-03-01T00:10:00;4.60;97.10
46720;DHT22;32452;51.382;-0.002;2023-03-01T00:12:45;4.60;97.10
46720;DHT22;32452;51.382;-0.002;2023-03-01T00:15:31;4.60;97.10
46720;DHT22;32452;51.382;-0.002;2023-03-01T00:18:17;4.60;97.10
46720;DHT22;32452;51.382;-0.002;2023-03-01T00:21:03;4.60;97.10
46720;DHT22;32452;51.382;-0.002;2023-03-01T00:23:48;4.60;97.00
46720;DHT22;32452;51.382;-0.002;2023-03-01T00:26:34;4.60;97.00
46720;DHT22;32452;51.382;-0.002;2023-03-01T00:29:19;4.60;97.00
46720;DHT22;32452;51.382;-0.002;2023-03-01T00:32:05;4.50;96.90
46720;DHT22;32452;51.382;-0.002;2023-03-01T00:34:50;4.50;96.90
46720;DHT22;32452;51.382;-0.002;2023-03-01T00:37:39;4.50;97.00
46720;DHT22;32452;51.382;-0.002;2023-03-01T00:40:30;4.50;97.00
46720;DHT22;32452;51.382;-0.002;2023-03-01T00:43:15;4.40;97.00
46720;DHT22;32452;51.382;-0.002;2023-03-01T00:46:02;4.40;97.00
46720;DHT22;32452;51.382;-0.002;2023-03-01T00:48:48;4.40;97.10
46720;DHT22;32452;51.382;-0.002;2023-03-01T00:51:34;4.40;97.20
46720;DHT22;32452;51.382;-0.002;2023-03-01T00:54:19;4.50;97.30
46720;DHT22;32452;51.382;-0.002;2023-03-01T00:57:04;4.50;97.30
46720;DHT22;32452;51.382;-0.002;2023-03-01T00:59:50;4.50;97.30
46720;DHT22;32452;51.382;-0.002;2023-03-01T01:02:37;4.50;97.20
46720;DHT22;32452;51.382;-0.002;2023-03-01T01:05:22;4.50;97.20
46720;DHT22;32452;51.382;-0.002;2023-03-01T01:08:08;4.50;97.20
46720;DHT22;32452;51.382;-0.002;2023-03-01T01:10:53;4.50;97.20
46720;DHT22;32452;51.382;-0.002;2023-03-01T01:13:40;4.50;97.20
46720;DHT22;32452;51.382;-0.002;2023-03-01T01:16:27;4.50;97.20
46720;DHT22;32452;51.382;-0.002;2023-03-01T01:19:14;4.50;97.20
46720;DHT22;32452;51.382;-0.002;2023-03-01T01:21:59;4.40;97.20
46720;DHT22;32452;51.382;-0.002;2023-03-01T01:24:45;4.40;97.20
46720;DHT22;32452;51.382;-0.002;2023-03-01T01:27:31;4.40;97.30
46720;DHT22;32452;51.382;-0.002;2023-03-01T01:30:17;4.40;97.40
46720;DHT22;32452;51.382;-0.002;2023-03-01T01:33:02;4.40;97.40
46720;DHT22;32452;51.382;-0.002;2023-03-01T01:35:48;4.40;97.40
46720;DHT22;32452;51.382;-0.002;2023-03-01T01:38:34;4.40;97.40
46720;DHT22;32452;51.382;-0.002;2023-03-01T01:41:21;4.40;97.50
46720;DHT22;32452;51.382;-0.002;2023-03-01T01:44:26;4.40;97.60
46720;DHT22;32452;51.382;-0.002;2023-03-01T01:47:16;4.40;97.60
46720;DHT22;32452;51.382;-0.002;2023-03-01T01:50:03;4.40;97.70
46720;DHT22;32452;51.382;-0.002;2023-03-01T01:52:50;4.40;97.70
46720;DHT22;32452;51.382;-0.002;2023-03-01T01:55:37;4.50;97.80
46720;DHT22;32452;51.382;-0.002;2023-03-01T01:58:26;4.50;97.90
46720;DHT22;32452;51.382;-0.002;2023-03-01T02:01:13;4.50;97.90
46720;DHT22;32452;51.382;-0.002;2023-03-01T02:03:58;4.50;97.90
46720;DHT22;32452;51.382;-0.002;2023-03-01T02:06:56;4.50;98.00
46720;DHT22;32452;51.382;-0.002;2023-03-01T02:09:47;4.50;98.00
46720;DHT22;32452;51.382;-0.002;2023-03-01T02:12:34;4.50;98.00
46720;DHT22;32452;51.382;-0.002;2023-03-01T02:15:21;4.50;98.10
46720;DHT22;32452;51.382;-0.002;2023-03-01T02:18:07;4.50;98.20
46720;DHT22;32452;51.382;-0.002;2023-03-01T02:24:10;4.50;98.30
46720;DHT22;32452;51.382;-0.002;2023-03-01T02:27:02;4.60;98.50
46720;DHT22;32452;51.382;-0.002;2023-03-01T02:29:47;4.60;98.60
46720;DHT22;32452;51.382;-0.002;2023-03-01T02:32:33;4.60;98.70
46720;DHT22;32452;51.382;-0.002;2023-03-01T02:35:19;4.70;98.80
46720;DHT22;32452;51.382;-0.002;2023-03-01T02:38:08;4.70;98.80
46720;DHT22;32452;51.382;-0.002;2023-03-01T02:40:54;4.70;98.90
46720;DHT22;32452;51.382;-0.002;2023-03-01T02:43:41;4.80;99.00
46720;DHT22;32452;51.382;-0.002;2023-03-01T02:46:27;4.80;99.00
46720;DHT22;32452;51.382;-0.002;2023-03-01T02:49:26;4.80;99.10
46720;DHT22;32452;51.382;-0.002;2023-03-01T02:55:12;4.80;99.30
46720;DHT22;32452;51.382;-0.002;2023-03-01T02:57:59;4.80;99.40
46720;DHT22;32452;51.382;-0.002;2023-03-01T03:00:46;4.90;99.60
46720;DHT22;32452;51.382;-0.002;2023-03-01T03:03:34;4.90;99.70
46720;DHT22;32452;51.382;-0.002;2023-03-01T03:06:20;5.00;99.90
46720;DHT22;32452;51.382;-0.002;2023-03-01T03:09:05;5.00;99.90
46720;DHT22;32452;51.382;-0.002;2023-03-01T03:11:51;5.00;99.90
46720;DHT22;32452;51.382;-0.002;2023-03-01T03:14:36;5.00;99.90
46720;DHT22;32452;51.382;-0.002;2023-03-01T03:17:21;5.00;99.90
46720;DHT22;32452;51.382;-0.002;2023-03-01T03:20:11;5.00;99.90
46720;DHT22;32452;51.382;-0.002;2023-03-01T03:22:57;5.00;99.90
46720;DHT22;32452;51.382;-0.002;2023-03-01T03:25:49;5.10;99.90
46720;DHT22;32452;51.382;-0.002;2023-03-01T03:28:35;5.10;99.90
46720;DHT22;32452;51.382;-0.002;2023-03-01T03:31:20;5.10;99.90
46720;DHT22;32452;51.382;-0.002;2023-03-01T03:34:06;5.10;99.90
46720;DHT22;32452;51.382;-0.002;2023-03-01T03:36:55;5.00;99.90
46720;DHT22;32452;51.382;-0.002;2023-03-01T03:39:47;5.00;99.90
46720;DHT22;32452;51.382;-0.002;2023-03-01T03:42:32;5.00;99.90
46720;DHT22;32452;51.382;-0.002;2023-03-01T03:45:18;5.00;99.90
46720;DHT22;32452;51.382;-0.002;2023-03-01T03:48:05;5.00;99.90
46720;DHT22;32452;51.382;-0.002;2023-03-01T03:50:56;5.00;99.90
46720;DHT22;32452;51.382;-0.002;2023-03-01T03:53:41;5.00;99.90
46720;DHT22;32452;51.382;-0.002;2023-03-01T03:56:27;5.00;99.90
46720;DHT22;32452;51.382;-0.002;2023-03-01T03:59:13;5.00;99.90
46720;DHT22;32452;51.382;-0.002;2023-03-01T04:01:58;5.00;99.90
46720;DHT22;32452;51.382;-0.002;2023-03-01T04:04:44;5.00;99.90
46720;DHT22;32452;51.382;-0.002;2023-03-01T04:07:29;5.00;99.90
46720;DHT22;32452;51.382;-0.002;2023-03-01T04:10:16;5.10;99.90
46720;DHT22;32452;51.382;-0.002;2023-03-01T04:13:02;5.10;99.90
46720;DHT22;32452;51.382;-0.002;2023-03-01T04:15:54;5.10;99.90
46720;DHT22;32452;51.382;-0.002;2023-03-01T04:18:39;5.10;99.90
46720;DHT22;32452;51.382;-0.002;2023-03-01T04:21:24;5.10;99.90
46720;DHT22;32452;51.382;-0.002;2023-03-01T04:24:10;5.10;99.90
46720;DHT22;32452;51.382;-0.002;2023-03-01T04:26:56;5.10;99.90
46720;DHT22;32452;51.382;-0.002;2023-03-01T04:29:41;5.10;99.90
46720;DHT22;32452;51.382;-0.002;2023-03-01T04:32:27;5.10;99.90
46720;DHT22;32452;51.382;-0.002;2023-03-01T04:35:12;5.10;99.90
46720;DHT22;32452;51.382;-0.002;2023-03-01T04:37:58;5.10;99.90
46720;DHT22;32452;51.382;-0.002;2023-03-01T04:40:43;5.10;99.90
46720;DHT22;32452;51.382;-0.002;2023-03-01T04:43:29;5.10;99.90
46720;DHT22;32452;51.382;-0.002;2023-03-01T04:46:16;5.10;99.90
46720;DHT22;32452;51.382;-0.002;2023-03-01T04:49:02;5.20;99.90
46720;DHT22;32452;51.382;-0.002;2023-03-01T04:51:48;5.10;99.90
46720;DHT22;32452;51.382;-0.002;2023-03-01T04:54:34;5.10;99.90
46720;DHT22;32452;51.382;-0.002;2023-03-01T04:57:20;5.10;99.90
46720;DHT22;32452;51.382;-0.002;2023-03-01T05:00:08;5.10;99.90
46720;DHT22;32452;51.382;-0.002;2023-03-01T05:03:05;5.10;99.90
46720;DHT22;32452;51.382;-0.002;2023-03-01T05:05:51;5.10;99.90
46720;DHT22;32452;51.382;-0.002;2023-03-01T05:08:40;5.10;99.90
46720;DHT22;32452;51.382;-0.002;2023-03-01T05:11:26;5.10;99.90
46720;DHT22;32452;51.382;-0.002;2023-03-01T05:14:15;5.10;99.90
46720;DHT22;32452;51.382;-0.002;2023-03-01T05:17:01;5.10;99.90
46720;DHT22;32452;51.382;-0.002;2023-03-01T05:19:49;5.10;99.90
46720;DHT22;32452;51.382;-0.002;2023-03-01T05:22:35;5.10;99.90
46720;DHT22;32452;51.382;-0.002;2023-03-01T05:25:21;5.10;99.90
46720;DHT22;32452;51.382;-0.002;2023-03-01T05:28:12;5.10;99.90
46720;DHT22;32452;51.382;-0.002;2023-03-01T05:30:58;5.10;99.90
46720;DHT22;32452;51.382;-0.002;2023-03-01T05:33:43;5.10;99.90
46720;DHT22;32452;51.382;-0.002;2023-03-01T05:36:29;5.10;99.90
46720;DHT22;32452;51.382;-0.002;2023-03-01T05:39:14;5.10;99.90
46720;DHT22;32452;51.382;-0.002;2023-03-01T05:42:01;5.10;99.90
46720;DHT22;32452;51.382;-0.002;2023-03-01T05:44:46;5.10;99.90
46720;DHT22;32452;51.382;-0.002;2023-03-01T05:47:32;5.20;99.90
46720;DHT22;32452;51.382;-0.002;2023-03-01T05:50:23;5.10;99.90
46720;DHT22;32452;51.382;-0.002;2023-03-01T05:53:13;5.10;99.90
46720;DHT22;32452;51.382;-0.002;2023-03-01T05:55:59;5.10;99.90
46720;DHT22;32452;51.382;-0.002;2023-03-01T05:58:45;5.20;99.90
46720;DHT22;32452;51.382;-0.002;2023-03-01T06:01:31;5.10;99.90
46720;DHT22;32452;51.382;-0.002;2023-03-01T06:04:17;5.10;99.90
46720;DHT22;32452;51.382;-0.002;2023-03-01T06:07:03;5.10;99.90
46720;DHT22;32452;51.382;-0.002;2023-03-01T06:09:48;5.10;99.90
46720;DHT22;32452;51.382;-0.002;2023-03-01T06:12:35;5.10;99.90
46720;DHT22;32452;51.382;-0.002;2023-03-01T06:15:21;5.10;99.90
46720;DHT22;32452;51.382;-0.002;2023-03-01T06:18:06;5.10;99.90
46720;DHT22;32452;51.382;-0.002;2023-03-01T06:20:53;5.10;99.90
46720;DHT22;32452;51.382;-0.002;2023-03-01T06:23:39;5.10;99.90
46720;DHT22;32452;51.382;-0.002;2023-03-01T06:26:25;5.10;99.90
46720;DHT22;32452;51.382;-0.002;2023-03-01T06:29:10;5.00;99.90
46720;DHT22;32452;51.382;-0.002;2023-03-01T06:31:56;5.00;99.90
46720;DHT22;32452;51.382;-0.002;2023-03-01T06:34:42;5.00;99.90
46720;DHT22;32452;51.382;-0.002;2023-03-01T06:37:27;5.00;99.90
46720;DHT22;32452;51.382;-0.002;2023-03-01T06:40:14;5.00;99.90
46720;DHT22;32452;51.382;-0.002;2023-03-01T06:42:59;5.10;99.90
46720;DHT22;32452;51.382;-0.002;2023-03-01T06:45:45;5.10;99.90
46720;DHT22;32452;51.382;-0.002;2023-03-01T06:48:31;5.10;99.90
46720;DHT22;32452;51.382;-0.002;2023-03-01T06:51:17;5.10;99.90
46720;DHT22;32452;51.382;-0.002;2023-03-01T06:54:04;5.10;99.90
46720;DHT22;32452;51.382;-0.002;2023-03-01T06:56:50;5.10;99.90
46720;DHT22;32452;51.382;-0.002;2023-03-01T06:59:36;5.10;99.90
46720;DHT22;32452;51.382;-0.002;2023-03-01T07:02:22;5.10;99.90
46720;DHT22;32452;51.382;-0.002;2023-03-01T07:05:08;5.10;99.90
46720;DHT22;32452;51.382;-0.002;2023-03-01T07:07:53;5.10;99.90
46720;DHT22;32452;51.382;-0.002;2023-03-01T07:10:39;5.10;99.90
46720;DHT22;32452;51.382;-0.002;2023-03-01T07:13:25;5.10;99.90
46720;DHT22;32452;51.382;-0.002;2023-03-01T07:16:10;5.10;99.90
46720;DHT22;32452;51.382;-0.002;2023-03-01T07:18:56;5.10;99.90
46720;DHT22;32452;51.382;-0.002;2023-03-01T07:21:44;5.20;99.90
46720;DHT22;32452;51.382;-0.002;2023-03-01T07:24:29;5.20;99.90
46720;DHT22;32452;51.382;-0.002;2023-03-01T07:27:14;5.20;99.90
46720;DHT22;32452;51.382;-0.002;2023-03-01T07:30:00;5.20;99.90
46720;DHT22;32452;51.382;-0.002;2023-03-01T07:32:46;5.20;99.90
46720;DHT22;32452;51.382;-0.002;2023-03-01T07:35:31;5.20;99.90
46720;DHT22;32452;51.382;-0.002;2023-03-01T07:38:18;5.20;99.90
46720;DHT22;32452;51.382;-0.002;2023-03-01T07:41:04;5.20;99.90
46720;DHT22;32452;51.382;-0.002;2023-03-01T07:43:50;5.30;99.90
46720;DHT22;32452;51.382;-0.002;2023-03-01T07:46:36;5.30;99.90
46720;DHT22;32452;51.382;-0.002;2023-03-01T07:49:22;5.30;99.90
46720;DHT22;32452;51.382;-0.002;2023-03-01T07:52:10;5.30;99.90
46720;DHT22;32452;51.382;-0.002;2023-03-01T07:54:57;5.40;99.90
46720;DHT22;32452;51.382;-0.002;2023-03-01T07:57:42;5.40;99.90
46720;DHT22;32452;51.382;-0.002;2023-03-01T08:00:28;5.40;99.90
46720;DHT22;32452;51.382;-0.002;2023-03-01T08:03:13;5.50;99.90
46720;DHT22;32452;51.382;-0.002;2023-03-01T08:06:00;5.70;99.90
46720;DHT22;32452;51.382;-0.002;2023-03-01T08:08:46;5.70;99.90
46720;DHT22;32452;51.382;-0.002;2023-03-01T08:11:31;5.80;99.90
46720;DHT22;32452;51.382;-0.002;2023-03-01T08:14:17;5.80;99.90
46720;DHT22;32452;51.382;-0.002;2023-03-01T08:17:02;5.80;99.90
46720;DHT22;32452;51.382;-0.002;2023-03-01T08:19:48;5.80;99.90
46720;DHT22;32452;51.382;-0.002;2023-03-01T08:22:34;6.00;99.90
46720;DHT22;32452;51.382;-0.002;2023-03-01T08:25:19;6.10;99.90
46720;DHT22;32452;51.382;-0.002;2023-03-01T08:28:05;6.20;99.90
46720;DHT22;32452;51.382;-0.002;2023-03-01T08:30:50;6.30;99.90
46720;DHT22;32452;51.382;-0.002;2023-03-01T08:33:36;6.50;99.90
46720;DHT22;32452;51.382;-0.002;2023-03-01T08:36:24;6.70;99.90
46720;DHT22;32452;51.382;-0.002;2023-03-01T08:39:12;6.80;99.90
46720;DHT22;32452;51.382;-0.002;2023-03-01T08:41:57;7.00;99.90
46720;DHT22;32452;51.382;-0.002;2023-03-01T08:44:43;7.00;99.90
46720;DHT22;32452;51.382;-0.002;2023-03-01T08:47:31;7.00;99.90
46720;DHT22;32452;51.382;-0.002;2023-03-01T08:50:18;7.00;99.90
46720;DHT22;32452;51.382;-0.002;2023-03-01T08:53:04;7.00;99.90
46720;DHT22;32452;51.382;-0.002;2023-03-01T08:55:49;6.90;99.90
46720;DHT22;32452;51.382;-0.002;2023-03-01T08:58:36;6.80;99.90
46720;DHT22;32452;51.382;-0.002;2023-03-01T09:01:22;6.80;99.90
46720;DHT22;32452;51.382;-0.002;2023-03-01T09:04:07;6.80;99.90
46720;DHT22;32452;51.382;-0.002;2023-03-01T09:06:53;6.80;99.90
46720;DHT22;32452;51.382;-0.002;2023-03-01T09:09:38;6.80;99.90
46720;DHT22;32452;51.382;-0.002;2023-03-01T09:12:24;6.80;99.90
46720;DHT22;32452;51.382;-0.002;2023-03-01T09:15:10;6.80;99.90
46720;DHT22;32452;51.382;-0.002;2023-03-01T09:17:55;6.90;99.90
46720;DHT22;32452;51.382;-0.002;2023-03-01T09:20:40;6.90;99.90
46720;DHT22;32452;51.382;-0.002;2023-03-01T09:23:26;7.00;99.90
46720;DHT22;32452;51.382;-0.002;2023-03-01T09:26:16;7.00;99.90
46720;DHT22;32452;51.382;-0.002;2023-03-01T09:29:04;7.00;99.90
46720;DHT22;32452;51.382;-0.002;2023-03-01T09:31:50;7.00;99.90
46720;DHT22;32452;51.382;-0.002;2023-03-01T09:34:36;7.00;99.90
46720;DHT22;32452;51.382;-0.002;2023-03-01T09:37:41;7.20;99.90
46720;DHT22;32452;51.382;-0.002;2023-03-01T09:40:30;7.50;99.90
46720;DHT22;32452;51.382;-0.002;2023-03-01T09:43:45;7.80;99.90
46720;DHT22;32452;51.382;-0.002;2023-03-01T09:46:37;7.90;99.90
46720;DHT22;32452;51.382;-0.002;2023-03-01T09:49:28;8.00;99.90
46720;DHT22;32452;51.382;-0.002;2023-03-01T09:52:24;8.10;99.90
46720;DHT22;32452;51.382;-0.002;2023-03-01T09:55:29;8.10;99.90
46720;DHT22;32452;51.382;-0.002;2023-03-01T10:01:38;8.20;99.90
46720;DHT22;32452;51.382;-0.002;2023-03-01T10:07:44;8.20;99.90
46720;DHT22;32452;51.382;-0.002;2023-03-01T10:10:36;8.30;99.70
46720;DHT22;32452;51.382;-0.002;2023-03-01T10:13:46;8.40;99.50
46720;DHT22;32452;51.382;-0.002;2023-03-01T10:16:48;8.60;99.50
46720;DHT22;32452;51.382;-0.002;2023-03-01T10:19:45;8.90;99.50
46720;DHT22;32452;51.382;-0.002;2023-03-01T10:22:31;9.20;99.00
46720;DHT22;32452;51.382;-0.002;2023-03-01T10:25:36;9.40;98.30
46720;DHT22;32452;51.382;-0.002;2023-03-01T10:31:27;9.40;97.20
46720;DHT22;32452;51.382;-0.002;2023-03-01T10:34:29;9.50;97.00
46720;DHT22;32452;51.382;-0.002;2023-03-01T10:37:17;10.10;97.00
46720;DHT22;32452;51.382;-0.002;2023-03-01T10:40:08;10.90;96.90
46720;DHT22;32452;51.382;-0.002;2023-03-01T10:42:58;12.10;95.20
46720;DHT22;32452;51.382;-0.002;2023-03-01T10:45:44;12.20;92.20
46720;DHT22;32452;51.382;-0.002;2023-03-01T10:48:29;11.60;88.90
46720;DHT22;32452;51.382;-0.002;2023-03-01T10:51:20;11.10;87.70
46720;DHT22;32452;51.382;-0.002;2023-03-01T10:54:36;10.50;87.60
46720;DHT22;32452;51.382;-0.002;2023-03-01T10:57:33;10.00;88.50
46720;DHT22;32452;51.382;-0.002;2023-03-01T11:00:25;9.60;89.00
46720;DHT22;32452;51.382;-0.002;2023-03-01T11:03:13;9.30;89.30
46720;DHT22;32452;51.382;-0.002;2023-03-01T11:06:04;9.10;89.40
46720;DHT22;32452;51.382;-0.002;2023-03-01T11:08:50;8.80;89.60
46720;DHT22;32452;51.382;-0.002;2023-03-01T11:11:37;8.60;89.70
46720;DHT22;32452;51.382;-0.002;2023-03-01T11:14:24;8.50;90.00
46720;DHT22;32452;51.382;-0.002;2023-03-01T11:17:15;8.50;90.00
46720;DHT22;32452;51.382;-0.002;2023-03-01T11:23:05;8.40;90.00
46720;DHT22;32452;51.382;-0.002;2023-03-01T11:26:02;8.40;89.80
46720;DHT22;32452;51.382;-0.002;2023-03-01T11:28:56;8.30;89.30
46720;DHT22;32452;51.382;-0.002;2023-03-01T11:31:42;8.30;89.10
46720;DHT22;32452;51.382;-0.002;2023-03-01T11:34:50;8.20;89.10
46720;DHT22;32452;51.382;-0.002;2023-03-01T11:38:24;8.20;88.90
46720;DHT22;32452;51.382;-0.002;2023-03-01T11:41:30;8.10;89.00
46720;DHT22;32452;51.382;-0.002;2023-03-01T11:44:24;8.00;89.40
46720;DHT22;32452;51.382;-0.002;2023-03-01T11:56:38;7.90;89.80
46720;DHT22;32452;51.382;-0.002;2023-03-01T11:59:56;7.90;90.00
46720;DHT22;32452;51.382;-0.002;2023-03-01T12:12:35;7.80;90.30
46720;DHT22;32452;51.382;-0.002;2023-03-01T12:15:45;7.80;90.30
46720;DHT22;32452;51.382;-0.002;2023-03-01T12:22:04;7.80;90.40
46720;DHT22;32452;51.382;-0.002;2023-03-01T12:31:43;7.80;90.50
46720;DHT22;32452;51.382;-0.002;2023-03-01T12:38:19;7.70;90.50
46720;DHT22;32452;51.382;-0.002;2023-03-01T12:50:21;7.80;90.70
46720;DHT22;32452;51.382;-0.002;2023-03-01T12:56:08;7.80;90.90
46720;DHT22;32452;51.382;-0.002;2023-03-01T12:59:13;7.90;91.10
46720;DHT22;32452;51.382;-0.002;2023-03-01T13:02:33;8.10;91.20
46720;DHT22;32452;51.382;-0.002;2023-03-01T13:05:36;8.10;91.00
46720;DHT22;32452;51.382;-0.002;2023-03-01T13:08:40;8.10;91.00
46720;DHT22;32452;51.382;-0.002;2023-03-01T13:11:27;8.10;91.00
46720;DHT22;32452;51.382;-0.002;2023-03-01T13:17:29;8.10;91.00
46720;DHT22;32452;51.382;-0.002;2023-03-01T13:20:24;8.00;91.00
46720;DHT22;32452;51.382;-0.002;2023-03-01T13:23:12;8.00;91.10
46720;DHT22;32452;51.382;-0.002;2023-03-01T13:28:55;7.90;91.40
46720;DHT22;32452;51.382;-0.002;2023-03-01T13:34:45;7.70;91.60
46720;DHT22;32452;51.382;-0.002;2023-03-01T13:37:36;7.70;91.70
46720;DHT22;32452;51.382;-0.002;2023-03-01T13:43:29;7.70;92.00
46720;DHT22;32452;51.382;-0.002;2023-03-01T13:46:21;7.70;92.10
46720;DHT22;32452;51.382;-0.002;2023-03-01T13:49:22;7.80;92.20
46720;DHT22;32452;51.382;-0.002;2023-03-01T13:55:40;7.90;92.30
46720;DHT22;32452;51.382;-0.002;2023-03-01T13:58:31;7.90;92.30
46720;DHT22;32452;51.382;-0.002;2023-03-01T14:01:28;7.90;92.30
46720;DHT22;32452;51.382;-0.002;2023-03-01T14:07:32;7.90;92.10
46720;DHT22;32452;51.382;-0.002;2023-03-01T14:10:17;7.90;92.10
46720;DHT22;32452;51.382;-0.002;2023-03-01T14:13:31;7.80;92.20
46720;DHT22;32452;51.382;-0.002;2023-03-01T14:19:47;7.80;92.10
46720;DHT22;32452;51.382;-0.002;2023-03-01T14:22:34;7.80;92.20
46720;DHT22;32452;51.382;-0.002;2023-03-01T14:25:25;7.80;92.20
46720;DHT22;32452;51.382;-0.002;2023-03-01T14:31:03;7.80;92.40
46720;DHT22;32452;51.382;-0.002;2023-03-01T14:33:55;7.80;92.40
46720;DHT22;32452;51.382;-0.002;2023-03-01T14:36:41;7.80;92.50
46720;DHT22;32452;51.382;-0.002;2023-03-01T14:39:26;7.80;92.50
46720;DHT22;32452;51.382;-0.002;2023-03-01T14:42:13;7.80;92.50
46720;DHT22;32452;51.382;-0.002;2023-03-01T14:45:02;7.70;92.50
46720;DHT22;32452;51.382;-0.002;2023-03-01T14:47:48;7.70;92.50
46720;DHT22;32452;51.382;-0.002;2023-03-01T14:50:41;7.60;92.60
46720;DHT22;32452;51.382;-0.002;2023-03-01T14:53:28;7.60;92.90
46720;DHT22;32452;51.382;-0.002;2023-03-01T14:56:22;7.60;93.00
46720;DHT22;32452;51.382;-0.002;2023-03-01T14:59:09;7.70;93.20
46720;DHT22;32452;51.382;-0.002;2023-03-01T15:01:56;7.70;93.30
46720;DHT22;32452;51.382;-0.002;2023-03-01T15:04:46;7.90;93.50
46720;DHT22;32452;51.382;-0.002;2023-03-01T15:07:36;7.90;93.60
46720;DHT22;32452;51.382;-0.002;2023-03-01T15:10:27;8.00;93.60
46720;DHT22;32452;51.382;-0.002;2023-03-01T15:13:19;8.00;93.50
46720;DHT22;32452;51.382;-0.002;2023-03-01T15:16:18;8.10;93.50
46720;DHT22;32452;51.382;-0.002;2023-03-01T15:19:06;8.00;93.40
46720;DHT22;32452;51.382;-0.002;2023-03-01T15:21:52;8.00;93.30
46720;DHT22;32452;51.382;-0.002;2023-03-01T15:24:37;8.00;93.20
46720;DHT22;32452;51.382;-0.002;2023-03-01T15:27:25;8.00;93.20
46720;DHT22;32452;51.382;-0.002;2023-03-01T15:30:21;8.00;93.20
46720;DHT22;32452;51.382;-0.002;2023-03-01T15:33:20;8.00;93.30
46720;DHT22;32452;51.382;-0.002;2023-03-01T15:36:32;8.00;93.40
46720;DHT22;32452;51.382;-0.002;2023-03-01T15:48:17;8.10;93.30
46720;DHT22;32452;51.382;-0.002;2023-03-01T15:51:03;8.20;93.30
46720;DHT22;32452;51.382;-0.002;2023-03-01T15:53:51;8.20;93.30
46720;DHT22;32452;51.382;-0.002;2023-03-01T15:56:39;8.20;93.30
46720;DHT22;32452;51.382;-0.002;2023-03-01T15:59:25;8.20;93.30
46720;DHT22;32452;51.382;-0.002;2023-03-01T16:02:11;8.20;93.20
46720;DHT22;32452;51.382;-0.002;2023-03-01T16:04:59;8.20;93.00
46720;DHT22;32452;51.382;-0.002;2023-03-01T16:07:45;8.20;92.90
46720;DHT22;32452;51.382;-0.002;2023-03-01T16:10:31;8.10;92.90
46720;DHT22;32452;51.382;-0.002;2023-03-01T16:13:18;8.10;92.90
46720;DHT22;32452;51.382;-0.002;2023-03-01T16:16:04;8.00;92.80
46720;DHT22;32452;51.382;-0.002;2023-03-01T16:18:50;8.00;92.90
46720;DHT22;32452;51.382;-0.002;2023-03-01T16:21:39;8.00;92.90
46720;DHT22;32452;51.382;-0.002;2023-03-01T16:24:24;7.90;92.80
46720;DHT22;32452;51.382;-0.002;2023-03-01T16:27:11;7.90;92.80
46720;DHT22;32452;51.382;-0.002;2023-03-01T16:29:56;7.90;92.80
46720;DHT22;32452;51.382;-0.002;2023-03-01T16:32:43;7.80;92.80
46720;DHT22;32452;51.382;-0.002;2023-03-01T16:35:29;7.70;92.80
46720;DHT22;32452;51.382;-0.002;2023-03-01T16:38:15;7.70;92.80
46720;DHT22;32452;51.382;-0.002;2023-03-01T16:41:00;7.70;92.90
46720;DHT22;32452;51.382;-0.002;2023-03-01T16:43:49;7.60;92.90
46720;DHT22;32452;51.382;-0.002;2023-03-01T16:46:35;7.60;92.90
46720;DHT22;32452;51.382;-0.002;2023-03-01T16:49:21;7.60;93.00
46720;DHT22;32452;51.382;-0.002;2023-03-01T16:52:07;7.60;93.00
46720;DHT22;32452;51.382;-0.002;2023-03-01T16:54:52;7.50;93.00
46720;DHT22;32452;51.382;-0.002;2023-03-01T16:57:39;7.40;93.10
46720;DHT22;32452;51.382;-0.002;2023-03-01T17:00:24;7.40;93.20
46720;DHT22;32452;51.382;-0.002;2023-03-01T17:03:10;7.40;93.30
46720;DHT22;32452;51.382;-0.002;2023-03-01T17:05:56;7.40;93.50
46720;DHT22;32452;51.382;-0.002;2023-03-01T17:08:42;7.40;93.60
46720;DHT22;32452;51.382;-0.002;2023-03-01T17:11:27;7.40;93.60
46720;DHT22;32452;51.382;-0.002;2023-03-01T17:14:13;7.30;93.60
46720;DHT22;32452;51.382;-0.002;2023-03-01T17:17:00;7.30;93.60
46720;DHT22;32452;51.382;-0.002;2023-03-01T17:19:47;7.30;93.60
46720;DHT22;32452;51.382;-0.002;2023-03-01T17:22:33;7.30;93.60
46720;DHT22;32452;51.382;-0.002;2023-03-01T17:25:19;7.20;93.50
46720;DHT22;32452;51.382;-0.002;2023-03-01T17:28:05;7.20;93.60
46720;DHT22;32452;51.382;-0.002;2023-03-01T17:30:50;7.20;93.60
46720;DHT22;32452;51.382;-0.002;2023-03-01T17:33:36;7.20;93.50
46720;DHT22;32452;51.382;-0.002;2023-03-01T17:36:22;7.20;93.50
46720;DHT22;32452;51.382;-0.002;2023-03-01T17:39:07;7.20;93.50
46720;DHT22;32452;51.382;-0.002;2023-03-01T17:41:53;7.20;93.50
46720;DHT22;32452;51.382;-0.002;2023-03-01T17:44:39;7.10;93.60
46720;DHT22;32452;51.382;-0.002;2023-03-01T17:47:27;7.10;93.60
46720;DHT22;32452;51.382;-0.002;2023-03-01T17:50:12;7.10;93.60
46720;DHT22;32452;51.382;-0.002;2023-03-01T17:52:58;7.10;93.70
46720;DHT22;32452;51.382;-0.002;2023-03-01T17:55:44;7.00;93.60
46720;DHT22;32452;51.382;-0.002;2023-03-01T17:58:30;7.00;93.60
46720;DHT22;32452;51.382;-0.002;2023-03-01T18:01:19;7.00;93.60
46720;DHT22;32452;51.382;-0.002;2023-03-01T18:04:05;7.00;93.60
46720;DHT22;32452;51.382;-0.002;2023-03-01T18:06:53;6.90;93.70
46720;DHT22;32452;51.382;-0.002;2023-03-01T18:09:38;6.90;93.60
46720;DHT22;32452;51.382;-0.002;2023-03-01T18:12:23;6.90;93.70
46720;DHT22;32452;51.382;-0.002;2023-03-01T18:15:09;6.90;93.70
46720;DHT22;32452;51.382;-0.002;2023-03-01T18:17:55;6.90;93.70
46720;DHT22;32452;51.382;-0.002;2023-03-01T18:20:40;6.90;93.70
46720;DHT22;32452;51.382;-0.002;2023-03-01T18:23:27;6.90;93.70
46720;DHT22;32452;51.382;-0.002;2023-03-01T18:26:14;6.90;93.70
46720;DHT22;32452;51.382;-0.002;2023-03-01T18:29:02;6.90;93.70
46720;DHT22;32452;51.382;-0.002;2023-03-01T18:31:49;6.80;93.70
46720;DHT22;32452;51.382;-0.002;2023-03-01T18:34:35;6.80;93.70
46720;DHT22;32452;51.382;-0.002;2023-03-01T18:37:21;6.80;93.80
46720;DHT22;32452;51.382;-0.002;2023-03-01T18:40:07;6.80;93.80
46720;DHT22;32452;51.382;-0.002;2023-03-01T18:42:53;6.80;93.90
46720;DHT22;32452;51.382;-0.002;2023-03-01T18:45:38;6.80;94.00
46720;DHT22;32452;51.382;-0.002;2023-03-01T18:48:27;6.80;94.00
46720;DHT22;32452;51.382;-0.002;2023-03-01T18:51:34;6.80;94.10
46720;DHT22;32452;51.382;-0.002;2023-03-01T18:54:20;6.80;94.20
46720;DHT22;32452;51.382;-0.002;2023-03-01T18:57:06;6.70;94.30
46720;DHT22;32452;51.382;-0.002;2023-03-01T18:59:51;6.70;94.50
46720;DHT22;32452;51.382;-0.002;2023-03-01T19:02:37;6.60;94.50
46720;DHT22;32452;51.382;-0.002;2023-03-01T19:05:23;6.60;94.70
46720;DHT22;32452;51.382;-0.002;2023-03-01T19:08:08;6.60;94.90
46720;DHT22;32452;51.382;-0.002;2023-03-01T19:10:55;6.60;95.00
46720;DHT22;32452;51.382;-0.002;2023-03-01T19:13:42;6.60;95.00
46720;DHT22;32452;51.382;-0.002;2023-03-01T19:16:30;6.60;95.10
46720;DHT22;32452;51.382;-0.002;2023-03-01T19:19:16;6.60;95.20
46720;DHT22;32452;51.382;-0.002;2023-03-01T19:22:02;6.60;95.30